Time;durP1;ratioP1;P1;durP2;ratioP2;P2;SDS_P1;SDS_P2;PMS_P1;PMS_P2;Temp;Humidity;BMP_temperature;BMP_pressure;BME280_temperature;BME280_humidity;BME280_pressure;Samples;Min_cycle;Max_cycle;Signal;HPM_P1;HPM_P2
2022/04/07 00:02:22;;;;;;;1.83;1.00;;;;;;;;;;6151719;23;20029;-53
2022/04/07 00:04:47;;;;;;;0.50;0.50;;;;;;;;;;6151463;23;20001;-54
2022/04/07 00:07:12;;;;;;;0.10;0.00;;;;;;;;;;6151423;23;20044;-58
2022/04/07 00:09:38;;;;;;;0.25;0.25;;;;;;;;;;6151641;23;20327;-55
2022/04/07 00:12:03;;;;;;;0.00;0.00;;;;;;;;;;6152307;23;19997;-60
2022/04/07 00:14:29;;;;;;;0.00;0.00;;;;;;;;;;6151969;23;20328;-57
2022/04/07 00:16:54;;;;;;;0.35;0.35;;;;;;;;;;6152112;23;19997;-57
2022/04/07 00:19:22;;;;;;;0.00;0.00;;;;;;;;;;6151473;23;20009;-58
2022/04/07 00:21:47;;;;;;;0.13;0.13;;;;;;;;;;6152262;23;20080;-57
2022/04/07 00:24:13;;;;;;;0.45;0.40;;;;;;;;;;6152098;23;20005;-56
2022/04/07 00:26:38;;;;;;;2.65;0.40;;;;;;;;;;6151453;23;20100;-54
2022/04/07 00:29:04;;;;;;;0.00;0.00;;;;;;;;;;6152425;23;20003;-53
2022/04/07 00:31:38;;;;;;;0.88;0.88;;;;;;;;;;6151845;23;19994;-58
2022/04/07 00:34:04;;;;;;;0.10;0.10;;;;;;;;;;6151483;23;20001;-55
2022/04/07 00:36:29;;;;;;;0.00;0.00;;;;;;;;;;6151932;23;20006;-55
2022/04/07 00:38:54;;;;;;;0.55;0.30;;;;;;;;;;6152184;23;19998;-54
2022/04/07 00:41:19;;;;;;;0.38;0.38;;;;;;;;;;6151663;23;20002;-53
2022/04/07 00:43:49;;;;;;;0.75;0.73;;;;;;;;;;6152243;23;20407;-56
2022/04/07 00:46:14;;;;;;;0.22;0.22;;;;;;;;;;6152070;23;19998;-59
2022/04/07 00:48:39;;;;;;;0.40;0.40;;;;;;;;;;6151497;23;20056;-54
2022/04/07 00:51:05;;;;;;;2.50;2.00;;;;;;;;;;6152548;23;20005;-57
2022/04/07 00:53:30;;;;;;;0.10;0.10;;;;;;;;;;6151889;23;20095;-57
2022/04/07 00:56:00;;;;;;;0.05;0.05;;;;;;;;;;6151935;23;20036;-57
2022/04/07 00:58:25;;;;;;;;;;;;;;;;;;6152503;23;20005;-57
2022/04/07 01:00:50;;;;;;;0.00;0.00;;;;;;;;;;6152940;23;19900;-58
2022/04/07 01:03:15;;;;;;;0.10;0.10;;;;;;;;;;6152214;23;20053;-57
2022/04/07 01:05:40;;;;;;;0.30;0.30;;;;;;;;;;6153019;23;19997;-54
2022/04/07 01:08:06;;;;;;;0.55;0.55;;;;;;;;;;6152720;23;20013;-59
2022/04/07 01:10:32;;;;;;;1.65;0.47;;;;;;;;;;6152663;23;19997;-56
2022/04/07 01:12:57;;;;;;;0.10;0.10;;;;;;;;;;6153052;23;20112;-57
2022/04/07 01:15:22;;;;;;;0.70;0.70;;;;;;;;;;6152308;23;20009;-56
2022/04/07 01:17:47;;;;;;;0.00;0.00;;;;;;;;;;6152344;23;20343;-54
2022/04/07 01:20:13;;;;;;;0.00;0.00;;;;;;;;;;6152249;23;20001;-56
2022/04/07 01:22:40;;;;;;;0.00;0.00;;;;;;;;;;6152287;23;20213;-55
2022/04/07 01:25:06;;;;;;;0.20;0.20;;;;;;;;;;6152190;23;20431;-55
2022/04/07 01:27:31;;;;;;;1.70;0.50;;;;;;;;;;6151544;23;20012;-57
2022/04/07 01:29:57;;;;;;;0.70;0.47;;;;;;;;;;6151246;23;20001;-52
2022/04/07 01:32:34;;;;;;;0.47;0.40;;;;;;;;;;6150596;23;19993;-54
2022/04/07 01:35:00;;;;;;;0.22;0.15;;;;;;;;;;6151668;23;20351;-55
2022/04/07 01:37:25;;;;;;;0.00;0.00;;;;;;;;;;6152302;23;20006;-53
2022/04/07 01:39:51;;;;;;;0.38;0.10;;;;;;;;;;6152044;23;20000;-55
2022/04/07 01:42:16;;;;;;;0.20;0.20;;;;;;;;;;6151514;23;20320;-57
2022/04/07 01:44:44;;;;;;;0.15;0.15;;;;;;;;;;6152092;23;20100;-55
2022/04/07 01:47:11;;;;;;;0.63;0.45;;;;;;;;;;6153320;23;20044;-57
2022/04/07 01:49:36;;;;;;;0.25;0.17;;;;;;;;;;6152536;23;20012;-54
2022/04/07 01:52:02;;;;;;;0.10;0.10;;;;;;;;;;6153294;23;20001;-55
2022/04/07 01:54:27;;;;;;;0.77;0.77;;;;;;;;;;6152664;23;20473;-54
2022/04/07 01:56:53;;;;;;;0.00;0.00;;;;;;;;;;6154046;23;19997;-54
2022/04/07 01:59:18;;;;;;;0.63;0.63;;;;;;;;;;6152612;23;20084;-54
2022/04/07 02:01:44;;;;;;;0.63;0.63;;;;;;;;;;6153313;23;20001;-54
2022/04/07 02:04:10;;;;;;;2.35;0.95;;;;;;;;;;6152999;23;20041;-55
2022/04/07 02:06:35;;;;;;;0.88;0.88;;;;;;;;;;6152778;23;20005;-57
2022/04/07 02:09:02;;;;;;;1.17;1.17;;;;;;;;;;6153275;23;20002;-56
2022/04/07 02:11:28;;;;;;;0.20;0.20;;;;;;;;;;6153102;23;20000;-54
2022/04/07 02:13:53;;;;;;;1.42;0.28;;;;;;;;;;6154067;23;20751;-56
2022/04/07 02:16:20;;;;;;;0.00;0.00;;;;;;;;;;6154070;23;20005;-57
2022/04/07 02:18:45;;;;;;;0.45;0.45;;;;;;;;;;6153028;23;20012;-56
2022/04/07 02:21:11;;;;;;;0.15;0.15;;;;;;;;;;6153737;23;20001;-55
2022/04/07 02:23:42;;;;;;;0.00;0.00;;;;;;;;;;6153523;23;20001;-56
2022/04/07 02:26:15;;;;;;;0.00;0.00;;;;;;;;;;6153880;23;20327;-56
2022/04/07 02:28:41;;;;;;;0.20;0.10;;;;;;;;;;6153479;23;20067;-55
2022/04/07 02:31:06;;;;;;;0.00;0.00;;;;;;;;;;6153978;23;20037;-56
2022/04/07 02:33:34;;;;;;;0.03;0.03;;;;;;;;;;6152566;23;20002;-55
2022/04/07 02:35:59;;;;;;;0.05;0.05;;;;;;;;;;6153502;23;20002;-56
2022/04/07 02:38:27;;;;;;;0.00;0.00;;;;;;;;;;6153403;23;20012;-55
2022/04/07 02:40:52;;;;;;;0.50;0.50;;;;;;;;;;6153631;23;20005;-57
2022/04/07 02:43:27;;;;;;;0.00;0.00;;;;;;;;;;6154596;23;20028;-57
2022/04/07 02:45:53;;;;;;;0.00;0.00;;;;;;;;;;6154437;23;20375;-52
2022/04/07 02:48:18;;;;;;;0.00;0.00;;;;;;;;;;6152984;23;19997;-56
2022/04/07 02:50:44;;;;;;;0.00;0.00;;;;;;;;;;6152911;23;20008;-55
2022/04/07 02:53:09;;;;;;;0.65;0.00;;;;;;;;;;6154559;23;20005;-53
2022/04/07 02:55:35;;;;;;;0.03;0.03;;;;;;;;;;6151423;23;20051;-54
2022/04/07 02:58:00;;;;;;;0.10;0.10;;;;;;;;;;6152485;23;20538;-53
2022/04/07 03:00:25;;;;;;;0.00;0.00;;;;;;;;;;6152458;23;20016;-54
2022/04/07 03:02:50;;;;;;;0.00;0.00;;;;;;;;;;6152726;23;20117;-52
2022/04/07 03:05:16;;;;;;;0.30;0.05;;;;;;;;;;6151272;23;20001;-57
2022/04/07 03:07:41;;;;;;;0.10;0.10;;;;;;;;;;6153196;23;20001;-55
2022/04/07 03:10:06;;;;;;;0.00;0.00;;;;;;;;;;6153405;23;20332;-56
2022/04/07 03:12:31;;;;;;;0.00;0.00;;;;;;;;;;6152800;23;20001;-59
2022/04/07 03:14:57;;;;;;;0.88;0.15;;;;;;;;;;6153189;23;19997;-54
2022/04/07 03:17:22;;;;;;;0.73;0.73;;;;;;;;;;6153149;23;20012;-53
2022/04/07 03:19:47;;;;;;;0.25;0.08;;;;;;;;;;6152697;23;19998;-54
2022/04/07 03:22:12;;;;;;;0.15;0.15;;;;;;;;;;6152856;23;20029;-54
2022/04/07 03:24:38;;;;;;;0.00;0.00;;;;;;;;;;6152530;23;20085;-56
2022/04/07 03:27:04;;;;;;;1.60;0.73;;;;;;;;;;6152338;23;20337;-55
2022/04/07 03:29:30;;;;;;;0.00;0.00;;;;;;;;;;6152826;23;20052;-54
2022/04/07 03:31:56;;;;;;;0.00;0.00;;;;;;;;;;6152958;23;20005;-53
2022/04/07 03:34:21;;;;;;;0.00;0.00;;;;;;;;;;6152899;23;20129;-53
2022/04/07 03:36:46;;;;;;;0.00;0.00;;;;;;;;;;6152304;23;20009;-56
2022/04/07 03:39:12;;;;;;;0.10;0.10;;;;;;;;;;6152770;23;20387;-55
2022/04/07 03:41:38;;;;;;;0.00;0.00;;;;;;;;;;6152486;23;20038;-52
2022/04/07 03:44:07;;;;;;;0.15;0.15;;;;;;;;;;6152963;23;20084;-57
2022/04/07 03:46:32;;;;;;;0.00;0.00;;;;;;;;;;6152472;23;19997;-54
2022/04/07 03:48:57;;;;;;;0.65;0.10;;;;;;;;;;6152934;23;20462;-55
2022/04/07 03:51:22;;;;;;;0.25;0.25;;;;;;;;;;6152444;23;20427;-56
2022/04/07 03:53:48;;;;;;;0.13;0.13;;;;;;;;;;6152219;23;20010;-52
2022/04/07 03:56:13;;;;;;;0.10;0.10;;;;;;;;;;6152758;23;20001;-55
2022/04/07 03:58:38;;;;;;;0.00;0.00;;;;;;;;;;6152643;23;20006;-57
2022/04/07 04:01:03;;;;;;;0.40;0.40;;;;;;;;;;6152896;23;20080;-55
2022/04/07 04:03:29;;;;;;;0.17;0.17;;;;;;;;;;6152615;23;20419;-54
2022/04/07 04:05:54;;;;;;;0.05;0.05;;;;;;;;;;6153241;23;20300;-55
2022/04/07 04:08:19;;;;;;;0.00;0.00;;;;;;;;;;6153151;23;20364;-56
2022/04/07 04:10:44;;;;;;;0.10;0.10;;;;;;;;;;6153312;23;20460;-56
2022/04/07 04:13:09;;;;;;;0.10;0.10;;;;;;;;;;6152951;23;20001;-57
2022/04/07 04:15:35;;;;;;;0.10;0.10;;;;;;;;;;6152538;23;20009;-55
2022/04/07 04:18:00;;;;;;;0.00;0.00;;;;;;;;;;6153280;23;20002;-51
2022/04/07 04:20:25;;;;;;;0.00;0.00;;;;;;;;;;6152680;23;20072;-55
2022/04/07 04:22:50;;;;;;;0.43;0.43;;;;;;;;;;6152814;23;20364;-56
2022/04/07 04:25:16;;;;;;;1.27;0.30;;;;;;;;;;6152598;23;20061;-55
2022/04/07 04:27:42;;;;;;;0.00;0.00;;;;;;;;;;6152723;23;20025;-53
2022/04/07 04:30:07;;;;;;;0.00;0.00;;;;;;;;;;6153205;23;20054;-55
2022/04/07 04:32:32;;;;;;;0.00;0.00;;;;;;;;;;6152977;23;20020;-56
2022/04/07 04:35:01;;;;;;;0.00;0.00;;;;;;;;;;6152793;23;20029;-53
2022/04/07 04:37:26;;;;;;;0.30;0.30;;;;;;;;;;6152852;23;20005;-54
2022/04/07 04:39:55;;;;;;;0.20;0.10;;;;;;;;;;6153139;23;20001;-53
2022/04/07 04:42:20;;;;;;;0.00;0.00;;;;;;;;;;6153117;23;19998;-54
2022/04/07 04:44:46;;;;;;;0.00;0.00;;;;;;;;;;6152695;23;20084;-57
2022/04/07 04:47:11;;;;;;;0.00;0.00;;;;;;;;;;6152948;23;19994;-57
2022/04/07 04:49:39;;;;;;;0.52;0.52;;;;;;;;;;6126174;23;20048;-57
2022/04/07 04:52:05;;;;;;;0.00;0.00;;;;;;;;;;6152491;23;20415;-54
2022/04/07 04:54:30;;;;;;;0.70;0.52;;;;;;;;;;6152321;23;20025;-57
2022/04/07 04:56:55;;;;;;;2.17;0.80;;;;;;;;;;6152220;23;20002;-53
2022/04/07 04:59:20;;;;;;;0.32;0.13;;;;;;;;;;6152578;23;20056;-57
2022/04/07 05:01:45;;;;;;;0.00;0.00;;;;;;;;;;6152291;23;20355;-57
2022/04/07 05:04:11;;;;;;;0.00;0.00;;;;;;;;;;6152396;23;20363;-56
2022/04/07 05:06:36;;;;;;;0.00;0.00;;;;;;;;;;6152363;23;19998;-56
2022/04/07 05:09:01;;;;;;;0.00;0.00;;;;;;;;;;6152209;23;19998;-53
2022/04/07 05:11:26;;;;;;;0.10;0.10;;;;;;;;;;6152375;23;20547;-55
2022/04/07 05:13:52;;;;;;;0.00;0.00;;;;;;;;;;6152369;23;20039;-57
2022/04/07 05:16:18;;;;;;;0.00;0.00;;;;;;;;;;6152904;23;20083;-56
2022/04/07 05:18:47;;;;;;;0.00;0.00;;;;;;;;;;6152317;23;20025;-55
2022/04/07 05:21:13;;;;;;;0.07;0.07;;;;;;;;;;6153948;23;20005;-55
2022/04/07 05:23:38;;;;;;;0.20;0.20;;;;;;;;;;6153969;23;20009;-55
2022/04/07 05:26:03;;;;;;;0.10;0.10;;;;;;;;;;6154291;23;19994;-57
2022/04/07 05:28:29;;;;;;;0.05;0.05;;;;;;;;;;6154479;23;20021;-58
2022/04/07 05:30:54;;;;;;;0.00;0.00;;;;;;;;;;6153798;23;20000;-54
2022/04/07 05:33:19;;;;;;;0.05;0.05;;;;;;;;;;6154449;23;20033;-54
2022/04/07 05:35:44;;;;;;;0.00;0.00;;;;;;;;;;6153148;23;20004;-56
2022/04/07 05:38:09;;;;;;;0.00;0.00;;;;;;;;;;6154261;23;20009;-58
2022/04/07 05:40:35;;;;;;;0.35;0.35;;;;;;;;;;6153697;23;20048;-56
2022/04/07 05:43:01;;;;;;;0.00;0.00;;;;;;;;;;6154250;23;20001;-56
2022/04/07 05:45:26;;;;;;;0.00;0.00;;;;;;;;;;6153547;23;19997;-54
2022/04/07 05:47:52;;;;;;;0.45;0.45;;;;;;;;;;6153213;23;20047;-57
2022/04/07 05:50:17;;;;;;;0.10;0.10;;;;;;;;;;6153470;23;20725;-57
2022/04/07 05:52:42;;;;;;;0.08;0.08;;;;;;;;;;6153441;23;20005;-56
2022/04/07 05:55:08;;;;;;;0.15;0.15;;;;;;;;;;6153718;23;20433;-57
2022/04/07 05:57:33;;;;;;;3.90;1.58;;;;;;;;;;6153346;23;20080;-57
2022/04/07 06:00:12;;;;;;;0.13;0.13;;;;;;;;;;6153712;23;20001;-56
2022/04/07 06:02:40;;;;;;;0.20;0.20;;;;;;;;;;6153812;23;20485;-56
2022/04/07 06:05:06;;;;;;;0.03;0.03;;;;;;;;;;6154308;23;20517;-54
2022/04/07 06:07:31;;;;;;;0.13;0.13;;;;;;;;;;6154803;23;20006;-56
2022/04/07 06:09:56;;;;;;;1.17;0.38;;;;;;;;;;6153881;23;20085;-53
2022/04/07 06:12:22;;;;;;;0.00;0.00;;;;;;;;;;6154277;23;19998;-55
2022/04/07 06:14:47;;;;;;;0.20;0.20;;;;;;;;;;6154157;23;20028;-56
2022/04/07 06:17:12;;;;;;;0.00;0.00;;;;;;;;;;6154556;23;20432;-56
2022/04/07 06:19:37;;;;;;;0.00;0.00;;;;;;;;;;6154080;23;20075;-55
2022/04/07 06:22:05;;;;;;;0.10;0.10;;;;;;;;;;6154804;23;20001;-55
2022/04/07 06:24:30;;;;;;;0.10;0.10;;;;;;;;;;6154184;23;20008;-56
2022/04/07 06:26:55;;;;;;;0.00;0.00;;;;;;;;;;6152830;23;20006;-54
2022/04/07 06:29:20;;;;;;;0.00;0.00;;;;;;;;;;6152855;23;20004;-55
2022/04/07 06:31:46;;;;;;;0.70;0.30;;;;;;;;;;6153703;23;20139;-53
2022/04/07 06:34:11;;;;;;;3.78;0.22;;;;;;;;;;6154290;23;20084;-52
2022/04/07 06:36:36;;;;;;;0.05;0.05;;;;;;;;;;6154453;23;20009;-56
2022/04/07 06:39:01;;;;;;;0.00;0.00;;;;;;;;;;6154431;23;20005;-55
2022/04/07 06:41:27;;;;;;;0.03;0.03;;;;;;;;;;6153680;23;20403;-57
2022/04/07 06:43:52;;;;;;;0.00;0.00;;;;;;;;;;6153023;23;19997;-54
2022/04/07 06:46:17;;;;;;;0.10;0.10;;;;;;;;;;6127759;23;20051;-54
2022/04/07 06:48:43;;;;;;;0.30;0.30;;;;;;;;;;6153748;23;20014;-55
2022/04/07 06:51:09;;;;;;;0.15;0.15;;;;;;;;;;6154064;23;20006;-51
2022/04/07 06:53:34;;;;;;;0.00;0.00;;;;;;;;;;6153513;23;20006;-56
2022/04/07 06:55:59;;;;;;;0.20;0.20;;;;;;;;;;6153788;23;20105;-54
2022/04/07 06:58:25;;;;;;;2.10;0.65;;;;;;;;;;6153665;23;20001;-55
2022/04/07 07:00:50;;;;;;;1.13;0.52;;;;;;;;;;6153430;23;20029;-56
2022/04/07 07:03:16;;;;;;;0.00;0.00;;;;;;;;;;6153980;23;20005;-51
2022/04/07 07:05:41;;;;;;;0.00;0.00;;;;;;;;;;6154001;23;20374;-52
2022/04/07 07:08:10;;;;;;;0.10;0.05;;;;;;;;;;6153679;23;20002;-55
2022/04/07 07:10:35;;;;;;;0.05;0.05;;;;;;;;;;6154367;23;19998;-54
2022/04/07 07:13:01;;;;;;;0.00;0.00;;;;;;;;;;6153682;23;20099;-54
2022/04/07 07:15:26;;;;;;;0.00;0.00;;;;;;;;;;6152954;23;20427;-54
2022/04/07 07:17:51;;;;;;;0.10;0.10;;;;;;;;;;6152604;23;20005;-55
2022/04/07 07:20:18;;;;;;;0.00;0.00;;;;;;;;;;6153285;23;19997;-54
2022/04/07 07:22:44;;;;;;;0.00;0.00;;;;;;;;;;6153283;23;20485;-53
2022/04/07 07:25:09;;;;;;;0.22;0.22;;;;;;;;;;6153367;23;19997;-54
2022/04/07 07:27:38;;;;;;;0.00;0.00;;;;;;;;;;6152975;23;19993;-55
2022/04/07 07:30:04;;;;;;;0.00;0.00;;;;;;;;;;6153200;23;19994;-53
2022/04/07 07:32:29;;;;;;;0.00;0.00;;;;;;;;;;6153638;23;20001;-52
2022/04/07 07:34:55;;;;;;;0.30;0.30;;;;;;;;;;6153134;23;20734;-56
2022/04/07 07:37:20;;;;;;;0.00;0.00;;;;;;;;;;6126408;23;20068;-52
2022/04/07 07:39:45;;;;;;;0.00;0.00;;;;;;;;;;6153067;23;20004;-54
2022/04/07 07:42:10;;;;;;;0.00;0.00;;;;;;;;;;6151870;23;20004;-54
2022/04/07 07:44:35;;;;;;;0.08;0.08;;;;;;;;;;6152422;23;20079;-55
2022/04/07 07:47:01;;;;;;;0.30;0.30;;;;;;;;;;6151005;23;19998;-55
2022/04/07 07:49:26;;;;;;;0.00;0.00;;;;;;;;;;6152741;23;20016;-55
2022/04/07 07:51:51;;;;;;;0.10;0.10;;;;;;;;;;6153387;23;20073;-57
2022/04/07 07:54:17;;;;;;;0.43;0.00;;;;;;;;;;6153410;23;20024;-59
2022/04/07 07:56:42;;;;;;;0.00;0.00;;;;;;;;;;6154011;23;20004;-59
2022/04/07 07:59:07;;;;;;;0.05;0.05;;;;;;;;;;6153862;23;20005;-58
2022/04/07 08:01:32;;;;;;;0.00;0.00;;;;;;;;;;6154172;23;19997;-59
2022/04/07 08:03:57;;;;;;;0.10;0.00;;;;;;;;;;6153435;23;20301;-58
2022/04/07 08:06:23;;;;;;;2.95;0.35;;;;;;;;;;6153669;23;20023;-57
2022/04/07 08:08:48;;;;;;;0.00;0.00;;;;;;;;;;6153342;23;19998;-57
2022/04/07 08:11:13;;;;;;;0.00;0.00;;;;;;;;;;6153502;23;20036;-58
2022/04/07 08:13:38;;;;;;;0.10;0.10;;;;;;;;;;6151346;23;20005;-59
2022/04/07 08:16:05;;;;;;;0.00;0.00;;;;;;;;;;6152454;23;20037;-60
2022/04/07 08:18:30;;;;;;;0.00;0.00;;;;;;;;;;6153634;23;20218;-59
2022/04/07 08:20:55;;;;;;;0.00;0.00;;;;;;;;;;6151723;23;20100;-57
2022/04/07 08:23:20;;;;;;;0.00;0.00;;;;;;;;;;6153210;23;20005;-59
2022/04/07 08:25:46;;;;;;;0.20;0.20;;;;;;;;;;6152552;23;19997;-59
2022/04/07 08:28:11;;;;;;;0.08;0.08;;;;;;;;;;6153372;23;20077;-59
2022/04/07 08:30:36;;;;;;;0.00;0.00;;;;;;;;;;6153305;23;20044;-59
2022/04/07 08:33:02;;;;;;;0.00;0.00;;;;;;;;;;6152385;23;20025;-59
2022/04/07 08:35:28;;;;;;;0.03;0.03;;;;;;;;;;6153323;23;20012;-58
2022/04/07 08:37:53;;;;;;;0.00;0.00;;;;;;;;;;6152493;23;20037;-58
2022/04/07 08:40:20;;;;;;;0.00;0.00;;;;;;;;;;6153219;23;20079;-59
2022/04/07 08:42:45;;;;;;;0.00;0.00;;;;;;;;;;6126188;23;20005;-58
2022/04/07 08:45:10;;;;;;;0.10;0.10;;;;;;;;;;6153196;23;20009;-59
2022/04/07 08:47:36;;;;;;;0.10;0.10;;;;;;;;;;6153111;23;20011;-59
2022/04/07 08:50:03;;;;;;;0.00;0.00;;;;;;;;;;6152583;23;20001;-59
2022/04/07 08:52:29;;;;;;;1.45;0.17;;;;;;;;;;6152604;23;19998;-58
2022/04/07 08:54:54;;;;;;;0.10;0.10;;;;;;;;;;6153935;23;20045;-59
2022/04/07 08:57:20;;;;;;;0.00;0.00;;;;;;;;;;6154136;23;20002;-59
2022/04/07 08:59:46;;;;;;;0.00;0.00;;;;;;;;;;6154145;23;20026;-58
2022/04/07 09:02:12;;;;;;;0.00;0.00;;;;;;;;;;6153779;23;20009;-59
2022/04/07 09:04:37;;;;;;;0.00;0.00;;;;;;;;;;6154210;23;20085;-59
2022/04/07 09:07:03;;;;;;;0.00;0.00;;;;;;;;;;6154047;23;20013;-59
2022/04/07 09:09:30;;;;;;;0.32;0.32;;;;;;;;;;6154209;23;19998;-59
2022/04/07 09:11:56;;;;;;;0.10;0.10;;;;;;;;;;6153603;23;20072;-59
2022/04/07 09:14:21;;;;;;;0.40;0.30;;;;;;;;;;6153748;23;20167;-59
2022/04/07 09:16:46;;;;;;;0.28;0.28;;;;;;;;;;6153979;23;20001;-58
2022/04/07 09:19:13;;;;;;;0.00;0.00;;;;;;;;;;6153563;23;19998;-58
2022/04/07 09:21:38;;;;;;;0.00;0.00;;;;;;;;;;6154049;23;20025;-58
2022/04/07 09:24:07;;;;;;;0.15;0.05;;;;;;;;;;6153136;23;20012;-59
2022/04/07 09:26:36;;;;;;;0.00;0.00;;;;;;;;;;6153280;23;20293;-60
2022/04/07 09:29:11;;;;;;;0.00;0.00;;;;;;;;;;6152419;23;20072;-58
2022/04/07 09:31:40;;;;;;;6.65;0.10;;;;;;;;;;6153130;23;20002;-58
2022/04/07 09:34:05;;;;;;;0.03;0.03;;;;;;;;;;6152601;23;20055;-58
2022/04/07 09:36:31;;;;;;;2.67;1.55;;;;;;;;;;6151940;23;21043;-58
2022/04/07 09:38:58;;;;;;;0.00;0.00;;;;;;;;;;6151995;23;20005;-58
2022/04/07 09:41:26;;;;;;;0.00;0.00;;;;;;;;;;6151100;23;20438;-58
2022/04/07 09:43:58;;;;;;;0.45;0.45;;;;;;;;;;6152506;23;20305;-58
2022/04/07 09:46:24;;;;;;;0.10;0.10;;;;;;;;;;6154565;23;20318;-58
2022/04/07 09:49:00;;;;;;;0.00;0.00;;;;;;;;;;6153243;23;19998;-59
2022/04/07 09:51:27;;;;;;;0.00;0.00;;;;;;;;;;6153657;23;20054;-59
2022/04/07 09:53:55;;;;;;;0.80;0.10;;;;;;;;;;6154374;23;20012;-59
2022/04/07 09:56:21;;;;;;;2.50;0.40;;;;;;;;;;6155339;23;20032;-60
2022/04/07 09:58:46;;;;;;;0.73;0.50;;;;;;;;;;6156406;23;20080;-58
2022/04/07 10:01:12;;;;;;;0.65;0.43;;;;;;;;;;6155976;23;20104;-61
2022/04/07 10:03:38;;;;;;;0.10;0.10;;;;;;;;;;6153120;23;20025;-60
2022/04/07 10:06:03;;;;;;;0.05;0.05;;;;;;;;;;6153755;23;20324;-60
2022/04/07 10:08:28;;;;;;;0.15;0.15;;;;;;;;;;6153483;23;20312;-59
2022/04/07 10:10:54;;;;;;;0.10;0.10;;;;;;;;;;6152752;23;20001;-59
2022/04/07 10:13:20;;;;;;;0.00;0.00;;;;;;;;;;6153234;23;20025;-60
2022/04/07 10:15:45;;;;;;;0.00;0.00;;;;;;;;;;6153138;23;20401;-60
2022/04/07 10:18:28;;;;;;;0.10;0.10;;;;;;;;;;6153601;23;20005;-60
2022/04/07 10:20:57;;;;;;;0.00;0.00;;;;;;;;;;6153458;23;20072;-60
2022/04/07 10:23:30;;;;;;;0.10;0.10;;;;;;;;;;6153225;23;20013;-57
2022/04/07 10:25:57;;;;;;;0.63;0.40;;;;;;;;;;6153924;23;20827;-58
2022/04/07 10:28:23;;;;;;;0.30;0.10;;;;;;;;;;6153564;23;20001;-58
2022/04/07 10:30:49;;;;;;;0.10;0.10;;;;;;;;;;6153590;23;20016;-58
2022/04/07 10:33:34;;;;;;;0.75;0.75;;;;;;;;;;6154258;23;20025;-58
2022/04/07 10:36:00;;;;;;;0.00;0.00;;;;;;;;;;6153158;23;19994;-58
2022/04/07 10:38:36;;;;;;;0.00;0.00;;;;;;;;;;6150736;23;20249;-58
2022/04/07 10:41:01;;;;;;;0.00;0.00;;;;;;;;;;6153527;23;20001;-59
2022/04/07 10:43:26;;;;;;;0.00;0.00;;;;;;;;;;6153270;23;20371;-58
2022/04/07 10:46:06;;;;;;;0.00;0.00;;;;;;;;;;6153573;23;19989;-58
2022/04/07 10:48:32;;;;;;;0.08;0.08;;;;;;;;;;6153691;23;20423;-59
2022/04/07 10:50:57;;;;;;;0.00;0.00;;;;;;;;;;6153281;23;19993;-58
2022/04/07 10:53:32;;;;;;;0.00;0.00;;;;;;;;;;6153780;23;20699;-57
2022/04/07 10:56:00;;;;;;;0.10;0.00;;;;;;;;;;6152640;23;20021;-54
2022/04/07 10:58:39;;;;;;;0.25;0.05;;;;;;;;;;6151427;23;20021;-52
2022/04/07 11:01:06;;;;;;;0.00;0.00;;;;;;;;;;6151410;23;20005;-52
2022/04/07 11:03:32;;;;;;;0.00;0.00;;;;;;;;;;6152088;23;20001;-50
2022/04/07 11:06:00;;;;;;;0.00;0.00;;;;;;;;;;6152018;23;20001;-54
2022/04/07 11:08:25;;;;;;;0.00;0.00;;;;;;;;;;6124131;23;20491;-55
2022/04/07 11:10:52;;;;;;;0.00;0.00;;;;;;;;;;6149996;23;20000;-55
2022/04/07 11:13:19;;;;;;;0.00;0.00;;;;;;;;;;6151835;23;20029;-52
2022/04/07 11:15:49;;;;;;;0.00;0.00;;;;;;;;;;6152168;23;20001;-54
2022/04/07 11:18:20;;;;;;;0.00;0.00;;;;;;;;;;6151893;23;20044;-53
2022/04/07 11:21:02;;;;;;;0.10;0.10;;;;;;;;;;6151808;23;20001;-55
2022/04/07 11:23:43;;;;;;;0.20;0.20;;;;;;;;;;6152640;23;20081;-52
2022/04/07 11:26:17;;;;;;;0.00;0.00;;;;;;;;;;6152624;23;20020;-54
2022/04/07 11:28:56;;;;;;;0.00;0.00;;;;;;;;;;6152018;23;19997;-54
2022/04/07 11:31:57;;;;;;;0.00;0.00;;;;;;;;;;6152553;23;20025;-55
2022/04/07 11:34:43;;;;;;;0.00;0.00;;;;;;;;;;6032879;23;20007;-55
2022/04/07 11:37:09;;;;;;;0.00;0.00;;;;;;;;;;6143296;23;20009;-55
2022/04/07 11:39:37;;;;;;;1.25;0.20;;;;;;;;;;6151565;23;20004;-51
2022/04/07 11:42:03;;;;;;;0.00;0.00;;;;;;;;;;6151007;23;20033;-54
2022/04/07 11:44:28;;;;;;;0.00;0.00;;;;;;;;;;6151498;23;20005;-53
2022/04/07 11:46:53;;;;;;;0.00;0.00;;;;;;;;;;6150858;23;20001;-50
2022/04/07 11:49:19;;;;;;;0.30;0.30;;;;;;;;;;6151307;23;20292;-54
2022/04/07 11:51:46;;;;;;;0.45;0.10;;;;;;;;;;6150813;23;20001;-53
2022/04/07 11:54:15;;;;;;;0.38;0.30;;;;;;;;;;6151250;23;20340;-53
2022/04/07 11:56:40;;;;;;;1.27;0.60;;;;;;;;;;6151337;23;20076;-53
2022/04/07 11:59:07;;;;;;;0.32;0.08;;;;;;;;;;6150802;23;20494;-54
2022/04/07 12:01:35;;;;;;;0.00;0.00;;;;;;;;;;6151704;23;20012;-54
2022/04/07 12:04:01;;;;;;;0.00;0.00;;;;;;;;;;6149900;23;20020;-55
2022/04/07 12:06:30;;;;;;;0.00;0.00;;;;;;;;;;6149936;23;20009;-54
2022/04/07 12:08:58;;;;;;;0.45;0.45;;;;;;;;;;6150193;23;20630;-55
2022/04/07 12:11:24;;;;;;;0.00;0.00;;;;;;;;;;6150450;23;20001;-54
2022/04/07 12:13:51;;;;;;;0.30;0.28;;;;;;;;;;6150119;23;20385;-56
2022/04/07 12:16:16;;;;;;;0.00;0.00;;;;;;;;;;6151479;23;20006;-54
2022/04/07 12:18:51;;;;;;;0.00;0.00;;;;;;;;;;6150620;23;20008;-52
2022/04/07 12:21:16;;;;;;;0.70;0.13;;;;;;;;;;6150379;23;20005;-54
2022/04/07 12:23:42;;;;;;;0.28;0.28;;;;;;;;;;6150780;23;20056;-55
2022/04/07 12:26:08;;;;;;;3.22;1.25;;;;;;;;;;6150450;23;20012;-54
2022/04/07 12:28:38;;;;;;;0.00;0.00;;;;;;;;;;6150556;23;20001;-56
2022/04/07 12:31:03;;;;;;;0.00;0.00;;;;;;;;;;6151039;23;20517;-56
2022/04/07 12:33:39;;;;;;;0.00;0.00;;;;;;;;;;6150301;23;20005;-52
2022/04/07 12:36:08;;;;;;;0.00;0.00;;;;;;;;;;6151307;23;20014;-54
2022/04/07 12:38:34;;;;;;;0.00;0.00;;;;;;;;;;6151301;23;20071;-54
2022/04/07 12:41:16;;;;;;;0.10;0.10;;;;;;;;;;6150057;23;20006;-56
2022/04/07 12:43:46;;;;;;;0.10;0.10;;;;;;;;;;6150998;23;20009;-53
2022/04/07 12:46:11;;;;;;;0.00;0.00;;;;;;;;;;6151895;23;20009;-56
2022/04/07 12:48:37;;;;;;;0.00;0.00;;;;;;;;;;6151463;23;20728;-55
2022/04/07 12:51:21;;;;;;;0.17;0.17;;;;;;;;;;6150822;23;20009;-54
2022/04/07 12:53:46;;;;;;;0.00;0.00;;;;;;;;;;6150461;23;20079;-54
2022/04/07 12:56:25;;;;;;;0.00;0.00;;;;;;;;;;6150247;23;20002;-56
2022/04/07 12:58:58;;;;;;;0.00;0.00;;;;;;;;;;6150570;23;20009;-56
2022/04/07 13:01:24;;;;;;;0.00;0.00;;;;;;;;;;6150857;23;20009;-52
2022/04/07 13:03:50;;;;;;;0.10;0.10;;;;;;;;;;6149994;23;20033;-54
2022/04/07 13:06:15;;;;;;;0.10;0.00;;;;;;;;;;6150831;23;20056;-54
2022/04/07 13:08:40;;;;;;;0.00;0.00;;;;;;;;;;6150955;23;20002;-55
2022/04/07 13:11:06;;;;;;;19.98;0.75;;;;;;;;;;6150466;23;20005;-55
2022/04/07 13:13:31;;;;;;;0.00;0.00;;;;;;;;;;6150623;23;20682;-54
2022/04/07 13:15:56;;;;;;;0.52;0.35;;;;;;;;;;6150289;23;19997;-53
2022/04/07 13:18:21;;;;;;;1.02;0.10;;;;;;;;;;6151549;23;20412;-52
2022/04/07 13:20:47;;;;;;;0.00;0.00;;;;;;;;;;6150750;23;20285;-53
2022/04/07 13:23:15;;;;;;;0.80;0.80;;;;;;;;;;6151610;23;20447;-52
2022/04/07 13:25:40;;;;;;;0.00;0.00;;;;;;;;;;6150972;23;20048;-50
2022/04/07 13:28:05;;;;;;;0.00;0.00;;;;;;;;;;6151063;23;20378;-53
2022/04/07 13:30:30;;;;;;;0.00;0.00;;;;;;;;;;6151318;23;20324;-54
2022/04/07 13:32:55;;;;;;;0.00;0.00;;;;;;;;;;6151043;23;20002;-51
2022/04/07 13:35:21;;;;;;;0.00;0.00;;;;;;;;;;6150926;23;20408;-55
2022/04/07 13:37:46;;;;;;;4.68;0.28;;;;;;;;;;6150071;23;20400;-53
2022/04/07 13:40:11;;;;;;;0.00;0.00;;;;;;;;;;6151587;23;19993;-56
2022/04/07 13:42:36;;;;;;;1.08;1.08;;;;;;;;;;6153067;23;20002;-53
2022/04/07 13:45:02;;;;;;;0.03;0.03;;;;;;;;;;6153219;23;20005;-54
2022/04/07 13:47:28;;;;;;;0.00;0.00;;;;;;;;;;6153224;23;20001;-56
2022/04/07 13:49:53;;;;;;;0.00;0.00;;;;;;;;;;6151813;23;20795;-55
2022/04/07 13:52:18;;;;;;;0.00;0.00;;;;;;;;;;6152332;23;19997;-55
2022/04/07 13:54:43;;;;;;;0.00;0.00;;;;;;;;;;6152450;23;20088;-53
2022/04/07 13:57:09;;;;;;;0.00;0.00;;;;;;;;;;6152442;23;20002;-54
2022/04/07 13:59:34;;;;;;;0.00;0.00;;;;;;;;;;6153230;23;20374;-53
2022/04/07 14:01:59;;;;;;;0.00;0.00;;;;;;;;;;6152467;23;20080;-51
2022/04/07 14:04:25;;;;;;;0.10;0.10;;;;;;;;;;6152564;23;20005;-55
2022/04/07 14:06:50;;;;;;;0.00;0.00;;;;;;;;;;6152218;23;20028;-54
2022/04/07 14:09:15;;;;;;;0.10;0.10;;;;;;;;;;6152877;23;20001;-54
2022/04/07 14:11:41;;;;;;;0.30;0.30;;;;;;;;;;6152768;23;20002;-51
2022/04/07 14:14:06;;;;;;;0.00;0.00;;;;;;;;;;6152233;23;20423;-53
2022/04/07 14:16:33;;;;;;;0.00;0.00;;;;;;;;;;6151823;23;19997;-55
2022/04/07 14:18:59;;;;;;;0.00;0.00;;;;;;;;;;6152267;23;20371;-55
2022/04/07 14:21:24;;;;;;;0.20;0.10;;;;;;;;;;6152341;23;20005;-52
2022/04/07 14:23:55;;;;;;;0.00;0.00;;;;;;;;;;6152086;23;19998;-54
2022/04/07 14:26:20;;;;;;;2.00;0.20;;;;;;;;;;6152765;23;20424;-53
2022/04/07 14:28:45;;;;;;;0.00;0.00;;;;;;;;;;6152319;23;20008;-52
2022/04/07 14:31:11;;;;;;;0.00;0.00;;;;;;;;;;6152147;23;20024;-51
2022/04/07 14:33:36;;;;;;;0.00;0.00;;;;;;;;;;6152858;23;20005;-55
2022/04/07 14:36:01;;;;;;;0.00;0.00;;;;;;;;;;6151604;23;20009;-55
2022/04/07 14:38:27;;;;;;;1.45;0.00;;;;;;;;;;6152809;23;20044;-52
2022/04/07 14:40:52;;;;;;;0.00;0.00;;;;;;;;;;6125862;23;20016;-55